Time;durP1;ratioP1;P1;durP2;ratioP2;P2;SDS_P1;SDS_P2;PMS_P1;PMS_P2;Temp;Humidity;BMP_temperature;BMP_pressure;BME280_temperature;BME280_humidity;BME280_pressure;Samples;Min_cycle;Max_cycle;Signal;HPM_P1;HPM_P2
2022/07/18 00:01:39;;;;;;;4.80;3.00;;;19.10;91.80;;;;;;4988884;28;20486;-45
2022/07/18 00:04:05;;;;;;;5.78;3.60;;;19.10;91.80;;;;;;5002244;28;20076;-49
2022/07/18 00:06:31;;;;;;;5.22;3.03;;;19.00;91.70;;;;;;4997185;28;20054;-47
2022/07/18 00:08:57;;;;;;;5.53;3.38;;;19.00;91.80;;;;;;4988665;28;20042;-47
2022/07/18 00:11:22;;;;;;;6.72;3.90;;;18.90;91.80;;;;;;4991481;28;20042;-47
2022/07/18 00:13:51;;;;;;;7.78;3.72;;;18.90;91.80;;;;;;4990988;28;20389;-46
2022/07/18 00:16:17;;;;;;;8.57;4.03;;;18.90;91.80;;;;;;4989133;28;20057;-46
2022/07/18 00:18:43;;;;;;;6.20;3.65;;;18.80;91.80;;;;;;4990280;28;20053;-49
2022/07/18 00:21:09;;;;;;;7.60;3.75;;;18.80;91.80;;;;;;4989866;28;20038;-44
2022/07/18 00:23:34;;;;;;;8.75;4.35;;;18.80;91.70;;;;;;4987712;28;20455;-45
2022/07/18 00:26:00;;;;;;;6.82;3.95;;;18.70;91.80;;;;;;4987365;28;20046;-47
2022/07/18 00:28:26;;;;;;;6.82;4.10;;;18.70;91.80;;;;;;4990659;28;20089;-45
2022/07/18 00:30:51;;;;;;;6.88;3.97;;;18.70;91.80;;;;;;4990786;28;20468;-45
2022/07/18 00:33:17;;;;;;;6.35;3.55;;;18.70;91.70;;;;;;4993104;28;20042;-44
2022/07/18 00:35:42;;;;;;;7.82;3.83;;;18.60;91.70;;;;;;4991834;28;20403;-47
2022/07/18 00:38:08;;;;;;;6.72;3.75;;;18.60;91.70;;;;;;4992655;28;20045;-43
2022/07/18 00:40:34;;;;;;;6.78;3.83;;;18.60;91.60;;;;;;4986746;28;20035;-49
2022/07/18 00:43:00;;;;;;;7.05;3.75;;;18.60;91.60;;;;;;4992169;28;20400;-46
2022/07/18 00:45:26;;;;;;;6.72;3.65;;;18.60;91.60;;;;;;4992306;28;20562;-48
2022/07/18 00:47:51;;;;;;;9.20;3.70;;;18.60;91.50;;;;;;4990956;28;20046;-47
2022/07/18 00:50:21;;;;;;;8.07;3.80;;;18.60;91.50;;;;;;4991157;28;20043;-48
2022/07/18 00:52:48;;;;;;;9.15;4.40;;;18.50;91.60;;;;;;4992103;28;20034;-44
2022/07/18 00:55:14;;;;;;;6.28;3.80;;;18.50;91.40;;;;;;4988889;28;20050;-44
2022/07/18 00:57:41;;;;;;;6.80;4.18;;;18.40;91.50;;;;;;4986859;28;20056;-43
2022/07/18 01:02:55;;;;;;;7.60;3.83;;;18.40;91.60;;;;;;4989053;28;20125;-45
2022/07/18 01:05:20;;;;;;;9.07;4.70;;;18.40;91.30;;;;;;4984613;28;20201;-43
2022/07/18 01:07:46;;;;;;;7.47;4.20;;;18.30;91.30;;;;;;4981406;28;20050;-46
2022/07/18 01:10:12;;;;;;;6.45;4.18;;;18.30;91.50;;;;;;4989865;28;20157;-44
2022/07/18 01:12:38;;;;;;;6.15;4.15;;;18.30;91.10;;;;;;4987673;28;20039;-46
2022/07/18 01:15:05;;;;;;;7.57;3.83;;;18.30;91.00;;;;;;4988670;28;20049;-48
2022/07/18 01:17:31;;;;;;;7.70;3.70;;;18.30;90.90;;;;;;4987268;28;20053;-48
2022/07/18 01:19:56;;;;;;;8.35;4.68;;;18.30;90.90;;;;;;4985739;28;20042;-43
2022/07/18 01:22:22;;;;;;;8.00;4.47;;;18.20;91.00;;;;;;4986784;28;20035;-46
2022/07/18 01:24:48;;;;;;;7.28;3.85;;;18.20;91.00;;;;;;4981272;28;20039;-44
2022/07/18 01:27:20;;;;;;;6.47;3.90;;;18.20;91.00;;;;;;4983500;28;20818;-47
2022/07/18 01:29:47;;;;;;;6.65;3.80;;;18.20;91.20;;;;;;4986524;28;20086;-44
2022/07/18 01:32:14;;;;;;;5.93;3.50;;;18.20;91.20;;;;;;4988626;28;20487;-45
2022/07/18 01:34:40;;;;;;;8.20;4.30;;;18.10;91.30;;;;;;4981746;28;20041;-44
2022/07/18 01:37:07;;;;;;;6.32;3.38;;;18.10;91.30;;;;;;4984684;28;20153;-44
2022/07/18 01:39:34;;;;;;;8.05;4.32;;;18.10;91.10;;;;;;4989790;28;20046;-48
2022/07/18 01:42:05;;;;;;;6.80;3.95;;;18.10;91.20;;;;;;4986503;28;20038;-47
2022/07/18 01:44:32;;;;;;;6.60;3.97;;;18.10;91.40;;;;;;4987738;28;20035;-45
2022/07/18 01:46:58;;;;;;;6.72;3.58;;;18.00;91.30;;;;;;4984783;28;20488;-44
2022/07/18 01:49:24;;;;;;;6.20;3.47;;;18.00;91.50;;;;;;4988115;28;20046;-48
2022/07/18 01:51:52;;;;;;;6.65;3.50;;;17.90;91.60;;;;;;4987289;28;20050;-47
2022/07/18 01:54:23;;;;;;;6.63;3.67;;;17.90;91.50;;;;;;4985399;28;20038;-46
2022/07/18 01:56:49;;;;;;;5.78;3.63;;;17.90;91.50;;;;;;4986202;28;20085;-46
2022/07/18 01:59:15;;;;;;;6.30;3.50;;;17.90;91.60;;;;;;4985462;28;20092;-45
2022/07/18 02:01:40;;;;;;;6.57;3.53;;;17.90;91.80;;;;;;4985252;28;20045;-47
2022/07/18 02:04:06;;;;;;;8.80;4.18;;;17.90;92.00;;;;;;4984598;28;20038;-49
2022/07/18 02:06:32;;;;;;;6.68;3.63;;;17.80;92.50;;;;;;4983101;28;20062;-46
2022/07/18 02:08:58;;;;;;;8.35;3.83;;;17.80;92.50;;;;;;4985191;28;20046;-46
2022/07/18 02:11:23;;;;;;;6.82;3.95;;;17.70;92.70;;;;;;4983579;28;20484;-43
2022/07/18 02:13:49;;;;;;;6.78;3.72;;;17.70;92.80;;;;;;4984704;28;20046;-43
2022/07/18 02:16:15;;;;;;;6.25;3.63;;;17.60;93.00;;;;;;4998924;28;20038;-44
2022/07/18 02:18:41;;;;;;;6.63;3.90;;;17.60;92.80;;;;;;4987413;28;20415;-43
2022/07/18 02:21:07;;;;;;;6.28;3.92;;;17.50;92.60;;;;;;4985240;28;20038;-44
2022/07/18 02:23:34;;;;;;;7.32;4.05;;;17.50;92.70;;;;;;4986298;28;20038;-44
2022/07/18 02:26:00;;;;;;;6.82;3.88;;;17.50;92.60;;;;;;4982789;28;20125;-44
2022/07/18 02:28:26;;;;;;;8.20;4.40;;;17.50;92.70;;;;;;4984638;28;20471;-44
2022/07/18 02:30:52;;;;;;;7.10;3.78;;;17.50;92.90;;;;;;4984733;28;20046;-44
2022/07/18 02:33:18;;;;;;;6.35;3.70;;;17.50;92.90;;;;;;4982350;28;20066;-42
2022/07/18 02:35:43;;;;;;;6.95;4.03;;;17.50;92.90;;;;;;4983602;28;20047;-44
2022/07/18 02:38:10;;;;;;;7.47;4.32;;;17.40;92.80;;;;;;4986980;28;20392;-43
2022/07/18 02:40:36;;;;;;;6.10;3.85;;;17.40;92.80;;;;;;4984913;28;20042;-46
2022/07/18 02:43:02;;;;;;;8.57;4.10;;;17.40;93.00;;;;;;4982625;28;20035;-47
2022/07/18 02:45:28;;;;;;;7.32;4.00;;;17.40;93.30;;;;;;4979895;28;20053;-47
2022/07/18 02:47:54;;;;;;;6.82;4.32;;;17.40;92.80;;;;;;4982392;28;20030;-44
2022/07/18 02:50:20;;;;;;;8.40;4.15;;;17.40;92.80;;;;;;4985135;28;20041;-44
2022/07/18 02:52:45;;;;;;;6.05;3.47;;;17.30;93.00;;;;;;4983605;28;20046;-44
2022/07/18 02:55:13;;;;;;;7.38;3.22;;;17.30;93.20;;;;;;4999203;28;20182;-42
2022/07/18 02:57:39;;;;;;;6.05;3.55;;;17.20;93.30;;;;;;4986811;28;22020;-44
2022/07/18 03:00:07;;;;;;;5.90;3.25;;;17.20;93.60;;;;;;4981309;28;20436;-47
2022/07/18 03:02:33;;;;;;;5.68;3.72;;;17.20;93.70;;;;;;4981642;28;20356;-46
2022/07/18 03:04:59;;;;;;;8.50;4.20;;;17.10;93.70;;;;;;4982903;28;20057;-45
2022/07/18 03:07:24;;;;;;;7.95;3.65;;;17.10;93.90;;;;;;4976806;28;20039;-46
2022/07/18 03:09:50;;;;;;;6.25;3.47;;;17.10;94.00;;;;;;4986705;28;20065;-45
2022/07/18 03:12:17;;;;;;;6.57;4.13;;;17.10;94.10;;;;;;4993197;28;20122;-43
2022/07/18 03:14:43;;;;;;;6.05;3.63;;;17.00;94.20;;;;;;4984098;28;20042;-45
2022/07/18 03:17:09;;;;;;;8.13;3.90;;;17.00;94.40;;;;;;4981850;28;20522;-45
2022/07/18 03:19:35;;;;;;;5.68;3.65;;;16.90;94.60;;;;;;4985389;28;20121;-45
2022/07/18 03:22:01;;;;;;;5.45;3.28;;;16.90;94.60;;;;;;4982837;28;20129;-45
2022/07/18 03:24:27;;;;;;;6.68;3.58;;;16.90;94.40;;;;;;4984663;28;20038;-44
2022/07/18 03:26:53;;;;;;;6.97;3.47;;;16.90;94.10;;;;;;4984865;28;20064;-47
2022/07/18 03:29:19;;;;;;;6.22;3.78;;;17.00;94.10;;;;;;4981146;28;20077;-45
2022/07/18 03:31:44;;;;;;;7.18;3.60;;;17.00;94.10;;;;;;4982883;28;20100;-44
2022/07/18 03:34:10;;;;;;;5.63;3.40;;;16.90;94.20;;;;;;4986106;28;20050;-44
2022/07/18 03:36:37;;;;;;;7.05;3.75;;;16.90;94.10;;;;;;4982746;28;20054;-46
2022/07/18 03:39:04;;;;;;;7.15;3.78;;;16.90;94.10;;;;;;4983579;28;20484;-43
2022/07/18 03:41:29;;;;;;;6.85;3.38;;;16.90;94.00;;;;;;4981854;28;20137;-45
2022/07/18 03:43:55;;;;;;;6.15;3.40;;;16.90;93.70;;;;;;4981838;28;20181;-45
2022/07/18 03:46:21;;;;;;;5.85;3.40;;;16.90;93.30;;;;;;4986906;28;20042;-49
2022/07/18 03:48:47;;;;;;;5.97;3.50;;;16.90;93.00;;;;;;4984459;28;20046;-44
2022/07/18 03:51:13;;;;;;;7.55;4.10;;;16.90;92.90;;;;;;4985039;28;20080;-44
2022/07/18 03:53:39;;;;;;;7.63;3.83;;;16.90;93.10;;;;;;4983585;28;20444;-44
2022/07/18 03:56:05;;;;;;;6.15;3.38;;;16.90;93.00;;;;;;4986993;28;20049;-43
2022/07/18 03:58:31;;;;;;;8.77;4.18;;;16.90;92.90;;;;;;4983877;28;20045;-47
2022/07/18 04:00:56;;;;;;;7.60;4.07;;;16.90;92.70;;;;;;4980508;28;20641;-45
2022/07/18 04:03:22;;;;;;;11.43;4.65;;;16.90;92.50;;;;;;4981696;28;20495;-45
2022/07/18 04:05:48;;;;;;;10.27;4.30;;;16.90;92.40;;;;;;4983281;28;20213;-44
2022/07/18 04:08:14;;;;;;;6.97;3.40;;;16.80;92.30;;;;;;4984987;28;20042;-45
2022/07/18 04:10:40;;;;;;;13.15;4.00;;;16.80;92.30;;;;;;4983937;28;20064;-43
2022/07/18 04:13:06;;;;;;;7.80;3.78;;;16.80;92.30;;;;;;4981733;28;20209;-45
2022/07/18 04:15:33;;;;;;;6.38;3.90;;;16.80;92.20;;;;;;4996595;28;20410;-44
2022/07/18 04:17:59;;;;;;;7.18;3.80;;;16.80;92.20;;;;;;4982516;28;20552;-44
2022/07/18 04:20:25;;;;;;;6.13;3.63;;;16.70;92.20;;;;;;4984476;28;20125;-44
2022/07/18 04:22:56;;;;;;;8.07;3.70;;;16.70;92.10;;;;;;4998938;28;20070;-46
2022/07/18 04:25:24;;;;;;;5.18;3.22;;;16.70;92.00;;;;;;4980792;28;20038;-45
2022/07/18 04:27:51;;;;;;;5.72;3.28;;;16.80;92.00;;;;;;4983068;28;20050;-47
2022/07/18 04:30:20;;;;;;;9.52;3.65;;;16.80;91.80;;;;;;4984155;28;20052;-48
2022/07/18 04:32:45;;;;;;;8.70;3.47;;;16.80;91.80;;;;;;4985817;28;20519;-44
2022/07/18 04:35:11;;;;;;;8.45;3.67;;;16.90;91.60;;;;;;4986777;28;20050;-47
2022/07/18 04:37:38;;;;;;;6.25;3.30;;;16.90;91.50;;;;;;4987511;28;20051;-44
2022/07/18 04:40:07;;;;;;;7.20;3.40;;;16.90;91.40;;;;;;4990677;28;20046;-44
2022/07/18 04:42:33;;;;;;;7.18;3.42;;;17.00;91.20;;;;;;4981999;28;20050;-44
2022/07/18 04:44:59;;;;;;;6.25;3.08;;;17.10;91.10;;;;;;4987871;28;20053;-43
2022/07/18 04:47:28;;;;;;;5.95;3.28;;;17.10;90.90;;;;;;4988270;28;20053;-46
2022/07/18 04:49:54;;;;;;;7.78;3.70;;;17.20;90.80;;;;;;4986819;28;20394;-43
2022/07/18 04:52:20;;;;;;;7.97;3.35;;;17.20;90.70;;;;;;4984725;28;20361;-45
2022/07/18 04:54:46;;;;;;;6.40;3.05;;;17.20;90.50;;;;;;4987362;28;20042;-44
2022/07/18 04:57:14;;;;;;;5.97;2.92;;;17.20;90.50;;;;;;4988777;28;20039;-47
2022/07/18 04:59:41;;;;;;;5.80;2.88;;;17.30;90.40;;;;;;4987274;28;20492;-44
2022/07/18 05:02:08;;;;;;;6.80;3.17;;;17.40;90.20;;;;;;4982209;28;20490;-46
2022/07/18 05:04:34;;;;;;;5.82;2.85;;;17.40;90.00;;;;;;4981385;28;20039;-43
2022/07/18 05:07:00;;;;;;;6.15;2.70;;;17.50;90.00;;;;;;4987474;28;20110;-43
2022/07/18 05:09:26;;;;;;;6.70;3.25;;;17.60;89.60;;;;;;4982651;28;20061;-43
2022/07/18 05:11:52;;;;;;;7.68;3.38;;;17.70;89.10;;;;;;4985666;28;20061;-47
2022/07/18 05:14:18;;;;;;;6.30;2.60;;;17.70;88.50;;;;;;4981209;28;20054;-44
2022/07/18 05:16:44;;;;;;;8.75;3.10;;;17.80;88.60;;;;;;4985275;28;20124;-44
2022/07/18 05:19:09;;;;;;;8.32;3.30;;;18.00;88.10;;;;;;4989286;28;20034;-43
2022/07/18 05:21:35;;;;;;;6.15;3.45;;;18.00;87.20;;;;;;4982843;28;20061;-47
2022/07/18 05:24:01;;;;;;;6.80;3.45;;;18.10;86.70;;;;;;4987063;28;20057;-44
2022/07/18 05:26:27;;;;;;;8.55;3.63;;;18.10;86.10;;;;;;4986862;28;20097;-45
2022/07/18 05:28:52;;;;;;;7.60;3.40;;;18.10;86.00;;;;;;4986472;28;20511;-47
2022/07/18 05:31:18;;;;;;;8.18;3.00;;;18.10;86.00;;;;;;4983748;28;20437;-45
2022/07/18 05:33:44;;;;;;;6.38;2.85;;;18.10;86.10;;;;;;4986437;28;20049;-44
2022/07/18 05:36:10;;;;;;;6.70;3.40;;;18.10;86.20;;;;;;4984390;28;20061;-43
2022/07/18 05:38:36;;;;;;;7.40;3.40;;;18.20;86.40;;;;;;4986569;28;20056;-44
2022/07/18 05:41:02;;;;;;;5.35;3.17;;;18.20;86.60;;;;;;4986508;28;20066;-43
2022/07/18 05:43:28;;;;;;;7.55;3.47;;;18.20;86.60;;;;;;4985869;28;20026;-45
2022/07/18 05:45:53;;;;;;;5.60;3.22;;;18.20;86.50;;;;;;4986152;28;20109;-44
2022/07/18 05:48:19;;;;;;;6.38;2.85;;;18.20;86.60;;;;;;4987807;28;20132;-45
2022/07/18 05:50:44;;;;;;;13.30;3.83;;;18.20;86.60;;;;;;4988059;28;20052;-46
2022/07/18 05:53:11;;;;;;;7.18;2.90;;;18.20;86.60;;;;;;4987707;28;20074;-43
2022/07/18 05:55:37;;;;;;;8.85;3.15;;;18.30;87.30;;;;;;4987800;28;20046;-43
2022/07/18 05:58:03;;;;;;;8.45;3.03;;;18.30;85.90;;;;;;4988340;28;20460;-44
2022/07/18 06:00:29;;;;;;;12.77;3.45;;;18.40;85.80;;;;;;4983854;28;20077;-43
2022/07/18 06:02:55;;;;;;;8.48;2.90;;;18.40;85.50;;;;;;4981571;28;20045;-44
2022/07/18 06:05:21;;;;;;;5.75;2.95;;;18.50;85.20;;;;;;4985647;28;20406;-46
2022/07/18 06:07:47;;;;;;;5.78;2.53;;;18.60;85.00;;;;;;4984782;28;20121;-46
2022/07/18 06:10:12;;;;;;;9.32;2.60;;;18.60;84.40;;;;;;4984828;28;20540;-47
2022/07/18 06:12:38;;;;;;;7.53;2.53;;;18.70;84.00;;;;;;4986993;28;20124;-46
2022/07/18 06:15:05;;;;;;;4.65;2.42;;;18.70;83.30;;;;;;4987530;28;20046;-43
2022/07/18 06:17:30;;;;;;;10.43;2.75;;;18.80;82.90;;;;;;4986143;28;20057;-45
2022/07/18 06:19:56;;;;;;;5.75;2.38;;;18.90;82.30;;;;;;4982380;28;20039;-44
2022/07/18 06:22:23;;;;;;;9.68;2.80;;;18.90;82.30;;;;;;4980129;28;20117;-43
2022/07/18 06:24:49;;;;;;;6.43;3.10;;;18.90;82.10;;;;;;4986518;28;20030;-46
2022/07/18 06:27:15;;;;;;;6.45;2.70;;;19.00;81.90;;;;;;4988585;28;20084;-47
2022/07/18 06:29:40;;;;;;;7.55;2.90;;;19.10;82.30;;;;;;4986011;28;20401;-47
2022/07/18 06:32:06;;;;;;;4.18;2.42;;;19.20;82.10;;;;;;4984524;28;20046;-47
2022/07/18 06:34:32;;;;;;;7.68;3.10;;;19.20;82.00;;;;;;4986846;28;20043;-44
2022/07/18 06:36:58;;;;;;;3.88;2.15;;;19.30;81.90;;;;;;4987235;28;20064;-47
2022/07/18 06:39:23;;;;;;;5.97;2.40;;;19.40;81.90;;;;;;4987041;28;20046;-45
2022/07/18 06:41:49;;;;;;;8.77;2.70;;;19.50;81.70;;;;;;4985749;28;20038;-44
2022/07/18 06:44:15;;;;;;;6.78;2.45;;;19.50;81.30;;;;;;4984615;28;20033;-44
2022/07/18 06:46:41;;;;;;;6.97;2.50;;;19.60;80.80;;;;;;4986114;28;20166;-48
2022/07/18 06:49:07;;;;;;;7.13;2.33;;;19.70;80.50;;;;;;4985532;28;20050;-47
2022/07/18 06:51:33;;;;;;;6.63;2.20;;;19.90;79.60;;;;;;4986359;28;20108;-48
2022/07/18 06:53:59;;;;;;;6.78;2.25;;;20.00;79.00;;;;;;4987285;28;20574;-50
2022/07/18 06:56:25;;;;;;;3.40;2.03;;;20.10;78.60;;;;;;4987328;28;20376;-44
2022/07/18 06:58:52;;;;;;;4.82;2.22;;;20.20;77.00;;;;;;4988610;28;20089;-43
2022/07/18 07:01:19;;;;;;;7.57;2.45;;;20.20;75.90;;;;;;4984886;28;20049;-45
2022/07/18 07:03:45;;;;;;;6.45;2.10;;;20.30;74.90;;;;;;4981115;28;20064;-47
2022/07/18 07:06:12;;;;;;;5.95;1.90;;;20.40;74.60;;;;;;4985046;28;20106;-48
2022/07/18 07:08:37;;;;;;;4.95;2.13;;;20.50;73.60;;;;;;5000308;28;20042;-47
2022/07/18 07:11:03;;;;;;;6.00;2.33;;;20.70;73.80;;;;;;4983365;28;20038;-45
2022/07/18 07:13:29;;;;;;;4.50;2.42;;;20.70;73.10;;;;;;4986309;28;20612;-47
2022/07/18 07:15:54;;;;;;;4.00;2.30;;;20.80;73.20;;;;;;4982913;28;20441;-45
2022/07/18 07:18:20;;;;;;;7.43;2.33;;;20.90;73.60;;;;;;4984044;28;20046;-46
2022/07/18 07:20:46;;;;;;;3.35;1.95;;;20.90;74.00;;;;;;4981676;28;20345;-46
2022/07/18 07:23:13;;;;;;;5.72;2.70;;;21.00;74.30;;;;;;4985530;28;20038;-45
2022/07/18 07:25:39;;;;;;;7.85;2.45;;;21.10;73.00;;;;;;4986127;28;20555;-48
2022/07/18 07:28:06;;;;;;;4.25;2.10;;;21.20;72.50;;;;;;4985145;28;20492;-44
2022/07/18 07:30:33;;;;;;;7.20;1.92;;;21.20;72.30;;;;;;4984675;28;20427;-47
2022/07/18 07:32:59;;;;;;;7.32;2.03;;;21.30;71.90;;;;;;4983162;28;20050;-46
2022/07/18 07:35:25;;;;;;;5.20;2.35;;;21.30;70.70;;;;;;4987714;28;20062;-44
2022/07/18 07:37:54;;;;;;;7.18;2.20;;;21.20;68.70;;;;;;4987259;28;20034;-45
2022/07/18 07:40:20;;;;;;;6.10;2.55;;;21.20;68.30;;;;;;4996584;28;20062;-43
2022/07/18 07:42:46;;;;;;;7.30;2.40;;;21.30;66.40;;;;;;4984946;28;20810;-44
2022/07/18 07:45:13;;;;;;;4.82;2.50;;;21.20;66.00;;;;;;4984981;28;20073;-45
2022/07/18 07:47:39;;;;;;;6.03;2.20;;;21.20;66.30;;;;;;4984236;28;20072;-49
2022/07/18 07:50:07;;;;;;;9.93;2.60;;;21.30;67.20;;;;;;4983457;28;20108;-45
2022/07/18 07:52:33;;;;;;;5.32;2.67;;;21.40;68.60;;;;;;4982077;28;20042;-45
2022/07/18 07:54:59;;;;;;;6.28;2.65;;;21.50;68.00;;;;;;4978900;28;20034;-45
2022/07/18 07:57:25;;;;;;;8.98;2.88;;;21.60;67.50;;;;;;4986304;28;20451;-45
2022/07/18 07:59:51;;;;;;;5.00;2.30;;;21.70;68.50;;;;;;4984512;28;20045;-45
2022/07/18 08:02:18;;;;;;;6.47;2.83;;;21.80;66.60;;;;;;4982535;28;20408;-45
2022/07/18 08:04:44;;;;;;;5.43;2.50;;;21.80;65.00;;;;;;4986501;28;20050;-45
2022/07/18 08:07:11;;;;;;;7.25;3.10;;;21.90;66.60;;;;;;4987273;28;20050;-48
2022/07/18 08:09:37;;;;;;;6.10;2.70;;;22.00;65.20;;;;;;4990650;28;20057;-45
2022/07/18 08:12:04;;;;;;;5.75;2.28;;;22.00;65.40;;;;;;4981112;28;20046;-45
2022/07/18 08:14:29;;;;;;;5.82;2.65;;;22.10;66.00;;;;;;4984019;28;20546;-45
2022/07/18 08:16:55;;;;;;;7.72;2.90;;;22.20;66.70;;;;;;4986822;28;20034;-44
2022/07/18 08:19:21;;;;;;;8.30;2.67;;;22.40;63.90;;;;;;4981639;28;20467;-45
2022/07/18 08:21:46;;;;;;;6.18;2.10;;;22.50;62.70;;;;;;4988040;28;20491;-43
2022/07/18 08:24:12;;;;;;;8.13;2.78;;;22.60;61.90;;;;;;4986538;28;20038;-44
2022/07/18 08:26:39;;;;;;;7.45;2.50;;;22.70;60.20;;;;;;4983885;28;20115;-45
2022/07/18 08:29:06;;;;;;;5.55;2.20;;;22.90;60.40;;;;;;4985187;28;20046;-45
2022/07/18 08:31:32;;;;;;;6.78;1.70;;;23.10;58.80;;;;;;4986711;28;20042;-45
2022/07/18 08:33:58;;;;;;;6.75;2.33;;;23.20;58.80;;;;;;4983645;28;20058;-46
2022/07/18 08:36:24;;;;;;;5.95;2.50;;;23.40;57.80;;;;;;4984988;28;20046;-43
2022/07/18 08:38:50;;;;;;;7.20;2.20;;;23.50;57.00;;;;;;4986786;28;20042;-44
2022/07/18 08:41:23;;;;;;;7.85;1.85;;;23.70;56.50;;;;;;4989516;28;20487;-43
2022/07/18 08:43:50;;;;;;;4.60;2.10;;;23.80;55.60;;;;;;4987516;28;20503;-44
2022/07/18 08:46:21;;;;;;;4.80;2.10;;;23.90;55.20;;;;;;4983163;28;20046;-44
2022/07/18 08:48:47;;;;;;;5.47;2.28;;;24.00;55.60;;;;;;4985389;28;20077;-44
2022/07/18 08:51:13;;;;;;;6.07;1.95;;;23.90;56.00;;;;;;4986763;28;20073;-47
2022/07/18 08:53:39;;;;;;;5.10;1.80;;;23.90;55.00;;;;;;4985992;28;20325;-44
2022/07/18 08:56:05;;;;;;;4.32;1.92;;;23.90;56.40;;;;;;4989517;28;20045;-44
2022/07/18 08:58:32;;;;;;;7.85;1.80;;;24.00;56.20;;;;;;4988069;28;20038;-46
2022/07/18 09:00:58;;;;;;;5.70;1.67;;;24.10;55.30;;;;;;4989774;28;20109;-44
2022/07/18 09:03:24;;;;;;;6.63;1.63;;;24.20;54.10;;;;;;4983526;28;20474;-47
2022/07/18 09:06:13;;;;;;;6.13;2.00;;;24.30;53.10;;;;;;4984141;28;20500;-44
2022/07/18 09:08:59;;;;;;;5.28;1.88;;;24.50;52.40;;;;;;4979505;28;20113;-43
2022/07/18 09:11:26;;;;;;;7.20;1.92;;;24.70;51.70;;;;;;4985099;28;20459;-44
2022/07/18 09:13:51;;;;;;;6.93;1.98;;;24.90;51.10;;;;;;4983844;28;20509;-43
2022/07/18 09:16:17;;;;;;;5.70;1.98;;;25.00;50.20;;;;;;5000593;28;20053;-45
2022/07/18 09:18:48;;;;;;;5.05;1.50;;;25.10;49.30;;;;;;4985614;28;20039;-45
2022/07/18 09:21:19;;;;;;;4.80;1.70;;;25.20;48.90;;;;;;4985396;28;20782;-44
2022/07/18 09:23:52;;;;;;;7.07;2.33;;;25.30;49.30;;;;;;4983858;28;20459;-43
2022/07/18 09:26:56;;;;;;;3.80;1.20;;;25.40;49.10;;;;;;4987297;28;20053;-45
2022/07/18 09:29:22;;;;;;;6.45;1.50;;;25.40;46.60;;;;;;4925691;29;20125;-46
2022/07/18 09:31:51;;;;;;;5.32;1.85;;;25.50;47.00;;;;;;4973834;28;20086;-43
2022/07/18 09:34:33;;;;;;;4.43;1.50;;;25.60;46.40;;;;;;4987514;28;20496;-44
2022/07/18 09:36:58;;;;;;;3.95;1.50;;;25.70;46.50;;;;;;4983573;28;20055;-46
2022/07/18 09:39:24;;;;;;;4.97;1.65;;;25.90;46.80;;;;;;4979939;28;20109;-44
2022/07/18 09:41:50;;;;;;;4.60;1.40;;;26.00;46.40;;;;;;4983429;28;20114;-47
2022/07/18 09:44:17;;;;;;;5.25;1.23;;;26.10;46.00;;;;;;4986082;28;20125;-43
2022/07/18 09:47:02;;;;;;;6.30;1.63;;;26.30;45.50;;;;;;4982948;28;20144;-44
2022/07/18 09:49:32;;;;;;;4.97;1.33;;;26.40;44.60;;;;;;4981466;28;20165;-43
2022/07/18 09:52:07;;;;;;;3.38;1.13;;;26.50;44.80;;;;;;4982955;28;20112;-45
2022/07/18 09:54:44;;;;;;;9.02;1.55;;;26.70;44.10;;;;;;4981850;28;20514;-43
2022/07/18 09:57:22;;;;;;;4.10;1.60;;;26.90;43.40;;;;;;4986680;28;20754;-44
2022/07/18 09:59:49;;;;;;;2.53;1.10;;;27.00;43.50;;;;;;4980545;28;20065;-46
2022/07/18 10:02:15;;;;;;;4.05;1.42;;;27.10;42.00;;;;;;4982822;28;20375;-44
2022/07/18 10:04:40;;;;;;;3.83;1.15;;;27.10;41.40;;;;;;4987493;28;20584;-46
2022/07/18 10:07:06;;;;;;;3.95;1.65;;;27.00;41.20;;;;;;4982494;28;20136;-44
2022/07/18 10:12:55;;;;;;;5.47;1.37;;;27.20;40.90;;;;;;5796787;23;20100;-46
2022/07/18 10:15:23;;;;;;;3.97;1.20;;;27.30;41.60;;;;;;5018805;28;20046;-46
2022/07/18 10:17:49;;;;;;;3.63;1.35;;;27.30;40.80;;;;;;5023349;28;20033;-49
2022/07/18 10:20:15;;;;;;;5.40;1.48;;;27.40;40.90;;;;;;5026587;28;20072;-45
2022/07/18 10:22:42;;;;;;;3.17;1.25;;;27.60;40.40;;;;;;5026274;28;20497;-47
2022/07/18 10:25:13;;;;;;;5.20;1.25;;;27.80;40.00;;;;;;5025928;28;20041;-48
2022/07/18 10:28:04;;;;;;;6.90;1.40;;;27.90;39.10;;;;;;5020501;28;20671;-48
2022/07/18 10:30:41;;;;;;;5.57;1.40;;;28.10;38.60;;;;;;5025798;28;20455;-45
2022/07/18 10:33:39;;;;;;;6.47;1.20;;;28.30;39.30;;;;;;5017659;28;20033;-46
2022/07/18 10:36:31;;;;;;;5.47;1.40;;;28.40;38.60;;;;;;5016345;28;20046;-44
2022/07/18 10:39:21;;;;;;;4.88;1.40;;;28.60;38.00;;;;;;5015090;28;20394;-50
2022/07/18 10:41:46;;;;;;;4.95;1.17;;;28.80;38.00;;;;;;5024660;28;20029;-50
2022/07/18 10:44:30;;;;;;;2.65;1.45;;;28.90;37.30;;;;;;5009527;28;20132;-48
2022/07/18 10:47:12;;;;;;;7.90;1.60;;;28.90;35.90;;;;;;5023200;28;20144;-46
2022/07/18 10:49:46;;;;;;;4.40;1.45;;;29.00;36.60;;;;;;5025023;28;20052;-46
2022/07/18 10:52:41;;;;;;;4.03;1.50;;;29.00;36.40;;;;;;5030122;28;20045;-46
2022/07/18 10:55:11;;;;;;;2.85;1.25;;;29.00;36.10;;;;;;5015522;28;20144;-45
2022/07/18 10:57:42;;;;;;;3.25;1.42;;;29.00;36.20;;;;;;5024716;28;20037;-45
2022/07/18 11:00:15;;;;;;;4.00;1.60;;;29.00;34.80;;;;;;5026709;28;20049;-50
2022/07/18 11:03:05;;;;;;;5.43;1.80;;;28.90;34.60;;;;;;5025205;28;20037;-47
2022/07/18 11:05:33;;;;;;;2.75;1.48;;;28.90;34.40;;;;;;5022855;28;20390;-46
2022/07/18 11:07:58;;;;;;;4.28;1.65;;;28.90;34.80;;;;;;5024008;28;20041;-48
2022/07/18 11:10:54;;;;;;;4.00;1.63;;;28.90;34.80;;;;;;5021431;28;20037;-46
2022/07/18 11:13:28;;;;;;;4.18;1.50;;;29.10;35.40;;;;;;5006483;28;20486;-49
2022/07/18 11:16:12;;;;;;;4.18;1.73;;;29.20;35.60;;;;;;5025675;28;20260;-44
2022/07/18 11:18:44;;;;;;;6.15;1.70;;;29.40;34.70;;;;;;5025127;28;20041;-47
2022/07/18 11:21:23;;;;;;;4.05;1.90;;;29.60;33.90;;;;;;5025038;28;20049;-46
2022/07/18 11:24:00;;;;;;;6.30;2.28;;;29.60;32.50;;;;;;5023315;28;20042;-49
2022/07/18 11:26:27;;;;;;;3.42;1.80;;;29.60;32.80;;;;;;5025304;28;20029;-48
2022/07/18 11:29:10;;;;;;;5.25;1.80;;;29.60;33.40;;;;;;5024126;28;20537;-49
2022/07/18 11:31:56;;;;;;;2.92;1.60;;;29.60;32.80;;;;;;5022229;28;20478;-46
2022/07/18 11:34:24;;;;;;;4.35;1.75;;;29.50;32.80;;;;;;5023397;28;20121;-45
2022/07/18 11:36:50;;;;;;;4.15;1.90;;;29.50;33.60;;;;;;5022487;28;20044;-45
2022/07/18 11:39:32;;;;;;;4.38;1.73;;;29.60;33.90;;;;;;5021413;28;20041;-49
2022/07/18 11:41:58;;;;;;;5.03;2.15;;;29.80;33.70;;;;;;5018744;28;20457;-45
2022/07/18 11:44:26;;;;;;;3.95;1.70;;;29.90;33.60;;;;;;5028563;28;20482;-48
2022/07/18 11:47:04;;;;;;;2.70;1.70;;;29.90;33.40;;;;;;5020395;28;20455;-48
2022/07/18 11:49:30;;;;;;;4.05;1.70;;;30.10;32.90;;;;;;5022045;28;20041;-45
2022/07/18 11:51:55;;;;;;;5.10;2.00;;;30.30;32.40;;;;;;5023462;28;20091;-47
2022/07/18 11:54:25;;;;;;;4.40;1.90;;;30.40;32.60;;;;;;5023210;28;20040;-46
2022/07/18 11:56:53;;;;;;;4.10;1.73;;;30.40;31.80;;;;;;5007829;28;20037;-46
2022/07/18 11:59:19;;;;;;;2.67;1.80;;;30.40;32.20;;;;;;5025107;28;20096;-46
2022/07/18 12:01:45;;;;;;;3.20;2.10;;;30.50;32.20;;;;;;5022857;28;20080;-47
2022/07/18 12:04:22;;;;;;;2.80;1.60;;;30.50;32.10;;;;;;5024189;28;20051;-49
2022/07/18 12:07:25;;;;;;;3.78;1.42;;;30.40;32.10;;;;;;5008872;28;20493;-47
2022/07/18 12:09:52;;;;;;;3.25;1.83;;;30.40;33.60;;;;;;5024217;28;20045;-45
2022/07/18 12:12:20;;;;;;;2.75;1.50;;;30.40;34.50;;;;;;5027819;28;20135;-50
2022/07/18 12:15:01;;;;;;;4.45;1.23;;;30.40;34.70;;;;;;5027681;28;20737;-49
2022/07/18 12:17:28;;;;;;;2.63;1.40;;;30.50;34.30;;;;;;5025503;28;20097;-45
2022/07/18 12:20:09;;;;;;;3.50;1.40;;;30.70;35.00;;;;;;5026007;28;20061;-49
2022/07/18 12:22:35;;;;;;;2.78;1.38;;;31.00;34.90;;;;;;5025474;28;20033;-49
2022/07/18 12:25:01;;;;;;;3.40;1.70;;;31.10;34.30;;;;;;5027903;28;20045;-46
2022/07/18 12:27:29;;;;;;;2.90;1.48;;;31.40;34.30;;;;;;5026250;28;20041;-46
2022/07/18 12:30:04;;;;;;;4.00;1.48;;;31.50;34.10;;;;;;5027744;28;20190;-47
2022/07/18 12:32:45;;;;;;;2.28;1.20;;;31.60;33.50;;;;;;5025502;28;20395;-46
2022/07/18 12:35:32;;;;;;;5.20;1.55;;;31.50;33.00;;;;;;5022870;28;20084;-48
2022/07/18 12:38:04;;;;;;;3.55;1.55;;;31.50;33.60;;;;;;5023725;28;20098;-45
2022/07/18 12:40:46;;;;;;;4.40;1.40;;;31.60;32.90;;;;;;5025650;28;20040;-47
2022/07/18 12:43:22;;;;;;;4.03;1.40;;;31.80;32.40;;;;;;5016818;28;20559;-46
2022/07/18 12:45:47;;;;;;;3.00;1.40;;;32.00;32.10;;;;;;5016848;28;20041;-48
2022/07/18 12:48:13;;;;;;;4.60;1.50;;;32.00;32.50;;;;;;5021573;28;20536;-41
2022/07/18 12:50:40;;;;;;;4.50;1.35;;;32.00;31.70;;;;;;5009318;28;20050;-44
2022/07/18 12:53:06;;;;;;;3.63;1.55;;;31.90;31.30;;;;;;5024673;28;20048;-46
2022/07/18 12:55:31;;;;;;;4.90;1.60;;;31.90;31.20;;;;;;5024368;28;20037;-42
2022/07/18 12:57:59;;;;;;;3.38;1.30;;;32.10;30.90;;;;;;5029475;28;20103;-45